Time;durP1;ratioP1;P1;durP2;ratioP2;P2;SDS_P1;SDS_P2;PMS_P1;PMS_P2;Temp;Humidity;BMP_temperature;BMP_pressure;BME280_temperature;BME280_humidity;BME280_pressure;Samples;Min_cycle;Max_cycle;Signal;HPM_P1;HPM_P2
2021/03/24 00:00:54;;;;;;;;;;;6.70;57.90;;;;;;5020957;28;19929;-69
2021/03/24 00:03:21;;;;;;;;;;;6.70;58.00;;;;;;5034075;28;20059;-69
2021/03/24 00:05:49;;;;;;;;;;;6.60;57.90;;;;;;5026239;28;19933;-69
2021/03/24 00:08:16;;;;;;;;;;;6.60;57.90;;;;;;5014602;28;19980;-70
2021/03/24 00:10:43;;;;;;;;;;;6.60;57.90;;;;;;5015383;28;19929;-69
2021/03/24 00:13:09;;;;;;;;;;;6.60;57.80;;;;;;5026349;28;19925;-69
2021/03/24 00:15:36;;;;;;;;;;;6.60;58.00;;;;;;5018101;28;19925;-69
2021/03/24 00:18:02;;;;;;;;;;;6.60;58.10;;;;;;5032063;28;19972;-69
2021/03/24 00:20:31;;;;;;;;;;;6.50;58.10;;;;;;5012327;28;19926;-69
2021/03/24 00:22:57;;;;;;;;;;;6.50;58.10;;;;;;5013122;28;19926;-69
2021/03/24 00:25:24;;;;;;;;;;;6.60;58.20;;;;;;5017734;28;19932;-69
2021/03/24 00:27:51;;;;;;;;;;;6.60;58.20;;;;;;5015903;28;19926;-69
2021/03/24 00:30:18;;;;;;;;;;;6.50;58.30;;;;;;5014131;28;19930;-69
2021/03/24 00:32:44;;;;;;;;;;;6.50;58.40;;;;;;5014509;28;19948;-69
2021/03/24 00:35:11;;;;;;;;;;;6.50;58.40;;;;;;5014732;28;19961;-69
2021/03/24 00:37:38;;;;;;;;;;;6.50;58.20;;;;;;5016400;28;20259;-69
2021/03/24 00:40:06;;;;;;;;;;;6.50;58.40;;;;;;5026153;28;19925;-69
2021/03/24 00:42:32;;;;;;;;;;;6.60;58.30;;;;;;5033167;28;19936;-69
2021/03/24 00:44:58;;;;;;;;;;;6.70;58.30;;;;;;5032700;28;19971;-69
2021/03/24 00:47:25;;;;;;;;;;;6.70;58.70;;;;;;5021705;28;19926;-69
2021/03/24 00:49:51;;;;;;;;;;;6.70;58.10;;;;;;5012262;28;19932;-69
2021/03/24 00:52:17;;;;;;;;;;;6.60;58.10;;;;;;5014406;28;19926;-69
2021/03/24 00:54:44;;;;;;;;;;;6.60;58.20;;;;;;5023838;28;19925;-69
2021/03/24 00:57:11;;;;;;;;;;;6.50;58.30;;;;;;5030938;28;19932;-69
2021/03/24 00:59:37;;;;;;;;;;;6.50;59.00;;;;;;5005092;28;19925;-69
2021/03/24 01:02:03;;;;;;;;;;;6.50;58.50;;;;;;5012402;28;19925;-69
2021/03/24 01:04:30;;;;;;;;;;;6.50;58.50;;;;;;5014204;28;19925;-69
2021/03/24 01:06:56;;;;;;;;;;;6.40;58.50;;;;;;5023566;28;19929;-69
2021/03/24 01:09:22;;;;;;;;;;;6.40;58.60;;;;;;5030932;28;20325;-69
2021/03/24 01:11:49;;;;;;;;;;;6.30;58.60;;;;;;5024854;28;19926;-69
2021/03/24 01:14:16;;;;;;;;;;;6.30;58.70;;;;;;5013943;28;19951;-69
2021/03/24 01:16:42;;;;;;;;;;;6.30;58.70;;;;;;5020294;28;20401;-69
2021/03/24 01:19:08;;;;;;;;;;;6.30;58.70;;;;;;5013717;28;19925;-68
2021/03/24 01:21:34;;;;;;;;;;;6.30;58.80;;;;;;5013653;28;19925;-69
2021/03/24 01:24:01;;;;;;;;;;;6.30;58.80;;;;;;5024021;28;20263;-69
2021/03/24 01:26:27;;;;;;;;;;;6.30;58.80;;;;;;5033088;28;19979;-69
2021/03/24 01:28:58;;;;;;;;;;;6.20;58.80;;;;;;5023811;28;19925;-70
2021/03/24 01:31:25;;;;;;;;;;;6.20;58.80;;;;;;5026988;28;19932;-70
2021/03/24 01:33:51;;;;;;;;;;;6.20;59.40;;;;;;5012967;28;19929;-69
2021/03/24 01:36:18;;;;;;;;;;;6.20;58.80;;;;;;5013620;28;19933;-69
2021/03/24 01:38:44;;;;;;;;;;;6.20;58.70;;;;;;5014686;28;19932;-70
2021/03/24 01:41:11;;;;;;;;;;;6.20;58.80;;;;;;5031095;28;19925;-69
2021/03/24 01:43:37;;;;;;;;;;;6.20;58.80;;;;;;5019685;28;19926;-69
2021/03/24 01:46:18;;;;;;;;;;;6.10;58.70;;;;;;5032097;28;19929;-69
2021/03/24 01:48:46;;;;;;;;;;;6.10;58.80;;;;;;5030530;28;19926;-69
2021/03/24 01:51:13;;;;;;;;;;;6.10;58.90;;;;;;5020289;28;19929;-69
2021/03/24 01:53:39;;;;;;;;;;;6.10;58.90;;;;;;5013472;28;19952;-69
2021/03/24 01:56:07;;;;;;;;;;;6.10;58.80;;;;;;5023883;28;20435;-69
2021/03/24 01:58:34;;;;;;;;;;;6.10;58.80;;;;;;5022196;28;19933;-69
2021/03/24 02:01:01;;;;;;;;;;;6.10;58.90;;;;;;5017415;28;19972;-69
2021/03/24 02:03:31;;;;;;;;;;;6.10;58.80;;;;;;5020794;28;20401;-69
2021/03/24 02:05:59;;;;;;;;;;;6.10;58.70;;;;;;5025513;28;20309;-69
2021/03/24 02:08:27;;;;;;;;;;;6.10;58.60;;;;;;5013590;28;19972;-69
2021/03/24 02:10:57;;;;;;;;;;;6.00;58.70;;;;;;5013809;28;19976;-69
2021/03/24 02:13:26;;;;;;;;;;;6.00;58.80;;;;;;5013334;28;19949;-69
2021/03/24 02:15:55;;;;;;;;;;;6.00;58.90;;;;;;5018128;28;19929;-69
2021/03/24 02:18:22;;;;;;;;;;;6.00;59.00;;;;;;5001319;28;19932;-69
2021/03/24 02:20:51;;;;;;;;;;;6.00;59.00;;;;;;5012891;28;19925;-69
2021/03/24 02:23:21;;;;;;;;;;;6.00;59.00;;;;;;5019731;28;19925;-69
2021/03/24 02:25:51;;;;;;;;;;;5.90;59.10;;;;;;5030258;28;19979;-69
2021/03/24 02:28:19;;;;;;;;;;;5.90;59.10;;;;;;5032573;28;19929;-69
2021/03/24 02:30:47;;;;;;;;;;;5.90;59.10;;;;;;5027738;28;19932;-69
2021/03/24 02:33:15;;;;;;;;;;;5.90;59.20;;;;;;5018546;28;19929;-69
2021/03/24 02:35:44;;;;;;;;;;;5.80;59.20;;;;;;5026192;28;19926;-69
2021/03/24 02:38:11;;;;;;;;;;;5.80;59.30;;;;;;5012721;28;20275;-69
2021/03/24 02:40:39;;;;;;;;;;;5.80;59.20;;;;;;5007055;28;19926;-69
2021/03/24 02:43:05;;;;;;;;;;;5.80;59.10;;;;;;5014077;28;19926;-69
2021/03/24 02:45:34;;;;;;;;;;;5.80;59.20;;;;;;5013596;28;19929;-69
2021/03/24 02:48:01;;;;;;;;;;;5.80;59.20;;;;;;5025194;28;19932;-69
2021/03/24 02:50:28;;;;;;;;;;;5.80;59.10;;;;;;5032677;28;19925;-69
2021/03/24 02:52:54;;;;;;;;;;;5.90;59.20;;;;;;5033555;28;20396;-69
2021/03/24 02:55:22;;;;;;;;;;;5.90;59.10;;;;;;5036066;28;19929;-69
2021/03/24 02:57:49;;;;;;;;;;;5.90;59.00;;;;;;5029459;28;19925;-69
2021/03/24 03:00:17;;;;;;;;;;;5.80;58.90;;;;;;5035805;28;20388;-69
2021/03/24 03:02:46;;;;;;;;;;;5.80;58.90;;;;;;5016446;28;19999;-69
2021/03/24 03:05:15;;;;;;;;;;;5.70;58.90;;;;;;5014538;28;20291;-69
2021/03/24 03:07:44;;;;;;;;;;;5.70;58.90;;;;;;5007151;28;19972;-69
2021/03/24 03:10:12;;;;;;;;;;;5.60;59.00;;;;;;5016229;28;19930;-69
2021/03/24 03:12:40;;;;;;;;;;;5.60;59.00;;;;;;5016003;28;19933;-69
2021/03/24 03:15:09;;;;;;;;;;;5.60;59.10;;;;;;5017183;28;19925;-70
2021/03/24 03:17:36;;;;;;;;;;;5.60;59.20;;;;;;5015717;28;20341;-70
2021/03/24 03:20:08;;;;;;;;;;;5.60;59.30;;;;;;5015864;28;19926;-69
2021/03/24 03:22:36;;;;;;;;;;;5.50;59.20;;;;;;5018292;28;19932;-69
2021/03/24 03:25:07;;;;;;;;;;;5.50;59.20;;;;;;5018951;28;19925;-69
2021/03/24 03:27:33;;;;;;;;;;;5.50;59.20;;;;;;5020427;28;19926;-69
2021/03/24 03:30:00;;;;;;;;;;;5.50;59.30;;;;;;5016745;28;19926;-69
2021/03/24 03:32:28;;;;;;;;;;;5.50;59.30;;;;;;5034541;28;19929;-69
2021/03/24 03:34:58;;;;;;;;;;;5.50;59.40;;;;;;5018256;28;20267;-69
2021/03/24 03:37:26;;;;;;;;;;;5.50;59.50;;;;;;5017620;28;19925;-69
2021/03/24 03:39:53;;;;;;;;;;;5.40;59.40;;;;;;5015476;28;19983;-69
2021/03/24 03:42:20;;;;;;;;;;;5.40;59.50;;;;;;5033790;28;19932;-69
2021/03/24 03:44:47;;;;;;;;;;;5.40;59.50;;;;;;5035285;28;19929;-69
2021/03/24 03:47:14;;;;;;;;;;;5.40;59.70;;;;;;5015144;28;19932;-69
2021/03/24 03:49:40;;;;;;;;;;;5.40;59.70;;;;;;5015669;28;20290;-69
2021/03/24 03:52:10;;;;;;;;;;;5.40;59.70;;;;;;5028468;28;19933;-69
2021/03/24 03:54:39;;;;;;;;;;;5.40;59.60;;;;;;5017933;28;19932;-69
2021/03/24 03:57:07;;;;;;;;;;;5.40;59.60;;;;;;5014989;28;19932;-68
2021/03/24 03:59:37;;;;;;;;;;;5.50;59.60;;;;;;5014362;28;20291;-69
2021/03/24 04:02:04;;;;;;;;;;;5.50;59.50;;;;;;5014733;28;19929;-69
2021/03/24 04:04:32;;;;;;;;;;;5.50;59.50;;;;;;5023928;28;19925;-69
2021/03/24 04:07:01;;;;;;;;;;;5.50;59.40;;;;;;5031690;28;19933;-69
2021/03/24 04:09:28;;;;;;;;;;;5.50;59.40;;;;;;5023128;28;20378;-68
2021/03/24 04:11:55;;;;;;;;;;;5.40;59.40;;;;;;5014865;28;20239;-69
2021/03/24 04:14:25;;;;;;;;;;;5.40;59.50;;;;;;5018744;28;19932;-68
2021/03/24 04:16:51;;;;;;;;;;;5.40;59.60;;;;;;5015078;28;19925;-68
2021/03/24 04:19:18;;;;;;;;;;;5.40;59.60;;;;;;5016088;28;19925;-69
2021/03/24 04:21:47;;;;;;;;;;;5.40;59.70;;;;;;5019443;28;19948;-69
2021/03/24 04:24:16;;;;;;;;;;;5.30;59.70;;;;;;5027744;28;19925;-69
2021/03/24 04:26:44;;;;;;;;;;;5.40;59.80;;;;;;5034664;28;19925;-68
2021/03/24 04:29:13;;;;;;;;;;;5.40;59.90;;;;;;5023733;28;19934;-69
2021/03/24 04:31:46;;;;;;;;;;;5.40;60.00;;;;;;5021970;28;19936;-69
2021/03/24 04:34:12;;;;;;;;;;;5.40;60.00;;;;;;5014089;28;21550;-69
2021/03/24 04:36:42;;;;;;;;;;;5.40;60.00;;;;;;5014625;28;19933;-69
2021/03/24 04:39:13;;;;;;;;;;;5.40;60.00;;;;;;5015834;28;19932;-69
2021/03/24 04:41:43;;;;;;;;;;;5.40;60.00;;;;;;5020882;28;19926;-69
2021/03/24 04:44:14;;;;;;;;;;;5.40;59.90;;;;;;5013977;28;19929;-69
2021/03/24 04:46:43;;;;;;;;;;;5.40;60.00;;;;;;5013810;28;20382;-69
2021/03/24 04:49:12;;;;;;;;;;;5.30;60.00;;;;;;5021227;28;20267;-69
2021/03/24 04:51:40;;;;;;;;;;;5.30;60.00;;;;;;5030381;28;19933;-69
2021/03/24 04:54:11;;;;;;;;;;;5.30;60.70;;;;;;5020198;28;19925;-69
2021/03/24 04:56:38;;;;;;;;;;;5.30;60.10;;;;;;5018066;28;19925;-69
2021/03/24 04:59:05;;;;;;;;;;;5.30;60.20;;;;;;5019879;28;20386;-70
2021/03/24 05:01:36;;;;;;;;;;;5.30;60.00;;;;;;5014128;28;20420;-71
2021/03/24 05:04:07;;;;;;;;;;;5.30;59.90;;;;;;5015340;28;19940;-69
2021/03/24 05:06:35;;;;;;;;;;;5.30;60.50;;;;;;5025276;28;19933;-68
2021/03/24 05:09:01;;;;;;;;;;;5.30;59.90;;;;;;5015135;28;19948;-69
2021/03/24 05:11:30;;;;;;;;;;;5.30;60.00;;;;;;5016168;28;19925;-69
2021/03/24 05:13:59;;;;;;;;;;;5.30;60.00;;;;;;5011997;28;19929;-69
2021/03/24 05:16:28;;;;;;;;;;;5.30;60.00;;;;;;5016605;28;19929;-68
2021/03/24 05:18:56;;;;;;;;;;;5.30;59.80;;;;;;5020113;28;19932;-68
2021/03/24 05:21:27;;;;;;;;;;;5.30;59.70;;;;;;5013528;28;20321;-68
2021/03/24 05:23:55;;;;;;;;;;;5.30;59.80;;;;;;5015740;28;20397;-69
2021/03/24 05:26:25;;;;;;;;;;;5.30;59.90;;;;;;5014080;28;19925;-68
2021/03/24 05:28:53;;;;;;;;;;;5.30;60.00;;;;;;5014091;28;20365;-68
2021/03/24 05:31:21;;;;;;;;;;;5.30;60.10;;;;;;5012106;28;19925;-69
2021/03/24 05:33:51;;;;;;;;;;;5.20;60.00;;;;;;5005925;28;19929;-69
2021/03/24 05:36:19;;;;;;;;;;;5.20;60.00;;;;;;5013834;28;19934;-69
2021/03/24 05:38:47;;;;;;;;;;;5.20;60.00;;;;;;5018314;28;19925;-69
2021/03/24 05:41:28;;;;;;;;;;;5.20;60.10;;;;;;5020089;28;19929;-69
2021/03/24 05:44:07;;;;;;;;;;;5.20;60.20;;;;;;5019993;28;19992;-69
2021/03/24 05:46:42;;;;;;;;;;;5.20;60.20;;;;;;5001328;28;19980;-69
2021/03/24 05:49:16;;;;;;;;;;;5.30;60.30;;;;;;5013411;28;19936;-69
2021/03/24 05:51:50;;;;;;;;;;;5.30;60.30;;;;;;5015544;28;19925;-69
2021/03/24 05:54:34;;;;;;;;;;;5.30;60.30;;;;;;5032968;28;19959;-69
2021/03/24 05:57:10;;;;;;;;;;;5.30;60.40;;;;;;5005708;28;19925;-69
2021/03/24 05:59:44;;;;;;;;;;;5.40;60.20;;;;;;5024265;28;20337;-69
2021/03/24 06:02:13;;;;;;;;;;;5.40;60.10;;;;;;5014191;28;20411;-70
2021/03/24 06:04:40;;;;;;;;;;;5.50;60.00;;;;;;5013300;28;20382;-68
2021/03/24 06:07:24;;;;;;;;;;;5.50;60.20;;;;;;5018915;28;19924;-69
2021/03/24 06:09:57;;;;;;;;;;;5.50;60.20;;;;;;5032396;28;19929;-69
2021/03/24 06:12:47;;;;;;;;;;;5.50;60.30;;;;;;5018433;28;19930;-69
2021/03/24 06:15:26;;;;;;;;;;;5.60;60.30;;;;;;5012061;28;20413;-69
2021/03/24 06:18:01;;;;;;;;;;;5.70;60.50;;;;;;5014701;28;19926;-69
2021/03/24 06:20:31;;;;;;;;;;;5.80;60.50;;;;;;5019901;28;19933;-69
2021/03/24 06:23:13;;;;;;;;;;;5.90;60.40;;;;;;5015751;28;19925;-69
2021/03/24 06:25:41;;;;;;;;;;;6.00;60.30;;;;;;5016128;28;19936;-69
2021/03/24 06:28:18;;;;;;;;;;;6.00;60.00;;;;;;5016966;28;19933;-70
2021/03/24 06:30:50;;;;;;;;;;;6.10;60.10;;;;;;5017349;28;19948;-70
2021/03/24 06:33:35;;;;;;;;;;;6.20;60.20;;;;;;5016918;28;19930;-69
2021/03/24 06:36:10;;;;;;;;;;;6.20;60.20;;;;;;5023208;28;19936;-69
2021/03/24 06:38:49;;;;;;;;;;;6.20;60.20;;;;;;5014930;28;20334;-70
2021/03/24 06:41:46;;;;;;;;;;;6.30;60.20;;;;;;5016485;28;19925;-69
2021/03/24 06:44:22;;;;;;;;;;;6.40;60.50;;;;;;5014860;28;19929;-70
2021/03/24 06:46:52;;;;;;;;;;;6.50;60.60;;;;;;5016990;28;19968;-70
2021/03/24 06:49:23;;;;;;;;;;;6.60;60.70;;;;;;5016161;28;19929;-72
2021/03/24 06:52:07;;;;;;;;;;;6.70;60.80;;;;;;5029571;28;19933;-72
2021/03/24 06:54:51;;;;;;;;;;;6.80;60.70;;;;;;4996910;28;19926;-72
2021/03/24 06:57:35;;;;;;;;;;;7.00;60.60;;;;;;5010562;28;19971;-72
2021/03/24 07:00:28;;;;;;;;;;;7.10;60.40;;;;;;5026720;28;19925;-71
2021/03/24 07:03:19;;;;;;;;;;;7.20;60.20;;;;;;5020635;28;19925;-71
2021/03/24 07:06:00;;;;;;;;;;;7.40;60.10;;;;;;5010993;28;19925;-71
2021/03/24 07:08:31;;;;;;;;;;;7.60;60.00;;;;;;5015236;28;19929;-72
2021/03/24 07:11:03;;;;;;;;;;;7.80;59.90;;;;;;5031226;28;19925;-71
2021/03/24 07:13:47;;;;;;;;;;;7.90;59.80;;;;;;5014667;28;19952;-72
2021/03/24 07:16:20;;;;;;;;;;;8.10;59.70;;;;;;5012924;28;19926;-72
2021/03/24 07:18:57;;;;;;;;;;;8.20;59.20;;;;;;5016515;28;19925;-71
2021/03/24 07:21:41;;;;;;;;;;;8.40;58.70;;;;;;5018601;28;20985;-71
2021/03/24 07:24:32;;;;;;;;;;;8.70;58.30;;;;;;5005390;28;19937;-71
2021/03/24 07:27:05;;;;;;;;;;;8.90;58.10;;;;;;5004152;28;19973;-71
2021/03/24 07:29:40;;;;;;;;;;;9.20;57.90;;;;;;5014963;28;19929;-72
2021/03/24 07:32:10;;;;;;;;;;;9.40;57.70;;;;;;5013183;28;19937;-72
2021/03/24 07:34:47;;;;;;;;;;;9.50;56.90;;;;;;5015790;28;19925;-72
2021/03/24 07:37:26;;;;;;;;;;;9.70;56.80;;;;;;5015463;28;19929;-71
2021/03/24 07:40:07;;;;;;;;;;;9.90;56.40;;;;;;5015507;28;19929;-71
2021/03/24 07:42:52;;;;;;;;;;;10.00;55.20;;;;;;4987785;28;19925;-71
2021/03/24 07:45:25;;;;;;;;;;;10.10;54.50;;;;;;5023597;28;19925;-71
2021/03/24 07:48:08;;;;;;;;;;;10.20;54.40;;;;;;5025446;28;19932;-71
2021/03/24 07:50:36;;;;;;;;;;;10.40;54.30;;;;;;5025459;28;19991;-71
2021/03/24 07:53:12;;;;;;;;;;;10.50;53.30;;;;;;5006609;28;19925;-72
2021/03/24 07:55:40;;;;;;;;;;;10.60;53.10;;;;;;5018300;28;20397;-72
2021/03/24 07:58:24;;;;;;;;;;;10.70;52.70;;;;;;5013346;28;19929;-71
2021/03/24 08:00:54;;;;;;;;;;;10.70;52.30;;;;;;5020904;28;20262;-71
2021/03/24 08:03:24;;;;;;;;;;;10.80;52.10;;;;;;5020475;28;19930;-72
2021/03/24 08:06:08;;;;;;;;;;;10.90;52.30;;;;;;5014597;28;19964;-72
2021/03/24 08:08:42;;;;;;;;;;;11.00;52.30;;;;;;5019311;28;19925;-72
2021/03/24 08:11:12;;;;;;;;;;;11.10;51.80;;;;;;4998963;28;20394;-71
2021/03/24 08:13:46;;;;;;;;;;;11.30;51.70;;;;;;5025393;28;19932;-72
2021/03/24 08:16:30;;;;;;;;;;;11.40;51.00;;;;;;5015833;28;20368;-71
2021/03/24 08:19:04;;;;;;;;;;;11.60;50.90;;;;;;5014868;28;19932;-72
2021/03/24 08:21:38;;;;;;;;;;;11.70;50.40;;;;;;5017078;28;20405;-72
2021/03/24 08:24:24;;;;;;;;;;;11.80;50.30;;;;;;5016249;28;20302;-72
2021/03/24 08:26:53;;;;;;;;;;;12.00;49.90;;;;;;5014638;28;19934;-71
2021/03/24 08:29:23;;;;;;;;;;;12.10;49.50;;;;;;5014406;28;19926;-71
2021/03/24 08:32:01;;;;;;;;;;;12.20;49.30;;;;;;5014266;28;19925;-72
2021/03/24 08:34:40;;;;;;;;;;;12.30;48.40;;;;;;5015151;28;19925;-72
2021/03/24 08:37:17;;;;;;;;;;;12.30;48.20;;;;;;5014191;28;19926;-72
2021/03/24 08:40:16;;;;;;;;;;;12.40;48.30;;;;;;5017825;28;19959;-72
2021/03/24 08:43:01;;;;;;;;;;;12.40;48.50;;;;;;4953055;28;20394;-72
2021/03/24 08:45:29;;;;;;;;;;;12.40;48.40;;;;;;4952821;28;19927;-72
2021/03/24 08:47:57;;;;;;;;;;;12.40;48.20;;;;;;4987663;28;19933;-72
2021/03/24 08:50:27;;;;;;;;;;;12.40;48.40;;;;;;5017852;28;19925;-72
2021/03/24 08:53:03;;;;;;;;;;;12.50;48.20;;;;;;5018412;28;19925;-72
2021/03/24 08:55:44;;;;;;;;;;;12.50;48.50;;;;;;5020363;28;19948;-73
2021/03/24 08:58:14;;;;;;;;;;;12.50;48.30;;;;;;5014376;28;19933;-71
2021/03/24 09:00:49;;;;;;;;;;;12.40;47.90;;;;;;5014431;28;19991;-72
2021/03/24 09:03:21;;;;;;;;;;;12.40;48.50;;;;;;5013796;28;20305;-70
2021/03/24 09:05:54;;;;;;;;;;;12.50;48.10;;;;;;5014066;28;19988;-71
2021/03/24 09:08:29;;;;;;;;;;;12.50;48.40;;;;;;5014878;28;19925;-72
2021/03/24 09:11:15;;;;;;;;;;;12.50;48.10;;;;;;5017323;28;20012;-71
2021/03/24 09:13:43;;;;;;;;;;;12.50;48.00;;;;;;5024381;28;19924;-71
2021/03/24 09:16:16;;;;;;;;;;;12.50;48.10;;;;;;5033618;28;19925;-71
2021/03/24 09:18:46;;;;;;;;;;;12.50;48.20;;;;;;5031662;28;19977;-71
2021/03/24 09:21:15;;;;;;;;;;;12.50;48.20;;;;;;5015712;28;19929;-70
2021/03/24 09:23:54;;;;;;;;;;;12.40;48.30;;;;;;5013329;28;19972;-70
2021/03/24 09:26:28;;;;;;;;;;;12.40;48.50;;;;;;5013524;28;19925;-71
2021/03/24 09:29:04;;;;;;;;;;;12.50;48.70;;;;;;5015653;28;19980;-70
2021/03/24 09:31:46;;;;;;;;;;;12.50;48.70;;;;;;5013366;28;20013;-70
2021/03/24 09:34:17;;;;;;;;;;;12.40;48.90;;;;;;5013652;28;19956;-70
2021/03/24 09:36:51;;;;;;;;;;;12.40;49.10;;;;;;5012883;28;19936;-70
2021/03/24 09:39:20;;;;;;;;;;;12.40;49.20;;;;;;5019073;28;20285;-71
2021/03/24 09:41:52;;;;;;;;;;;12.40;49.00;;;;;;5012721;28;19929;-70
2021/03/24 09:44:25;;;;;;;;;;;12.40;49.10;;;;;;4993674;28;19926;-71
2021/03/24 09:46:53;;;;;;;;;;;12.40;48.90;;;;;;5015314;28;20374;-71
2021/03/24 09:49:22;;;;;;;;;;;12.40;49.00;;;;;;5021210;28;19972;-71
2021/03/24 09:51:53;;;;;;;;;;;12.30;49.20;;;;;;5013398;28;19925;-72
2021/03/24 09:54:21;;;;;;;;;;;12.30;49.40;;;;;;5013296;28;19933;-72
2021/03/24 09:56:57;;;;;;;;;;;12.30;49.50;;;;;;5013434;28;19933;-72
2021/03/24 09:59:26;;;;;;;;;;;12.30;49.60;;;;;;5013322;28;19929;-71
2021/03/24 10:02:01;;;;;;;;;;;12.40;49.60;;;;;;5013146;28;19945;-71
2021/03/24 10:04:40;;;;;;;;;;;12.50;49.60;;;;;;5013191;28;19926;-71
2021/03/24 10:07:14;;;;;;;;;;;12.50;49.50;;;;;;5013041;28;20394;-71
2021/03/24 10:09:44;;;;;;;;;;;12.60;49.50;;;;;;5013173;28;19925;-71
2021/03/24 10:12:16;;;;;;;;;;;12.70;49.40;;;;;;5012909;28;19933;-71
2021/03/24 10:14:46;;;;;;;;;;;12.90;49.10;;;;;;5011380;28;19933;-71
2021/03/24 10:17:17;;;;;;;;;;;12.90;48.90;;;;;;5012650;28;20457;-71
2021/03/24 10:19:45;;;;;;;;;;;13.00;48.80;;;;;;5013246;28;19948;-71
2021/03/24 10:22:15;;;;;;;;;;;13.20;48.60;;;;;;5012974;28;19925;-71
2021/03/24 10:24:43;;;;;;;;;;;13.30;48.80;;;;;;5012847;28;20342;-71
2021/03/24 10:27:11;;;;;;;;;;;13.40;48.50;;;;;;5012857;28;19925;-71
2021/03/24 10:29:39;;;;;;;;;;;13.50;48.10;;;;;;5012797;28;19926;-71
2021/03/24 10:32:07;;;;;;;;;;;13.70;47.90;;;;;;5012783;28;19926;-71
2021/03/24 10:34:36;;;;;;;;;;;13.80;47.70;;;;;;5012749;28;20390;-71
2021/03/24 10:37:07;;;;;;;;;;;14.00;47.40;;;;;;5012817;28;19926;-71
2021/03/24 10:39:37;;;;;;;;;;;14.10;46.80;;;;;;5011368;28;20366;-71
2021/03/24 10:42:13;;;;;;;;;;;14.20;46.60;;;;;;5012985;28;20341;-71
2021/03/24 10:44:45;;;;;;;;;;;14.40;46.50;;;;;;5012806;28;19930;-71
2021/03/24 10:47:16;;;;;;;;;;;14.70;45.90;;;;;;5012831;28;21275;-71
2021/03/24 10:49:49;;;;;;;;;;;14.80;45.00;;;;;;5012781;28;19925;-71
2021/03/24 10:52:17;;;;;;;;;;;14.90;44.80;;;;;;5012974;28;20303;-71
2021/03/24 10:54:45;;;;;;;;;;;15.10;44.90;;;;;;5012704;28;19925;-71
2021/03/24 10:57:44;;;;;;;;;;;15.50;44.60;;;;;;5012951;28;19926;-71
2021/03/24 11:00:14;;;;;;;;;;;16.00;44.00;;;;;;4952396;28;19933;-71
2021/03/24 11:02:49;;;;;;;;;;;16.70;43.00;;;;;;4952307;29;19931;-71
2021/03/24 11:05:19;;;;;;;;;;;17.40;42.10;;;;;;4943621;28;19933;-71
2021/03/24 11:07:49;;;;;;;;;;;18.10;40.90;;;;;;4982405;28;19976;-72
2021/03/24 11:10:29;;;;;;;;;;;18.60;38.80;;;;;;4996903;28;19980;-71
2021/03/24 11:12:57;;;;;;;;;;;18.90;37.80;;;;;;4996704;28;19925;-71
2021/03/24 11:15:26;;;;;;;;;;;19.60;38.10;;;;;;4996467;28;20331;-71
2021/03/24 11:17:59;;;;;;;;;;;20.50;37.20;;;;;;5020775;28;19932;-71
2021/03/24 11:20:40;;;;;;;;;;;21.50;35.70;;;;;;5036041;28;19925;-71
2021/03/24 11:23:09;;;;;;;;;;;22.70;34.30;;;;;;5035659;28;20028;-71
2021/03/24 11:25:38;;;;;;;;;;;23.80;31.60;;;;;;5035926;28;19925;-71
2021/03/24 11:28:07;;;;;;;;;;;25.00;30.80;;;;;;5035770;28;19929;-71
2021/03/24 11:30:34;;;;;;;;;;;26.40;29.70;;;;;;5035569;28;20293;-72
2021/03/24 11:33:10;;;;;;;;;;;27.90;27.70;;;;;;5033571;28;19925;-71
2021/03/24 11:35:39;;;;;;;;;;;28.90;26.00;;;;;;5035319;28;19925;-71
2021/03/24 11:38:13;;;;;;;;;;;27.90;25.50;;;;;;5035729;28;19955;-72
2021/03/24 11:40:42;;;;;;;;;;;26.00;26.40;;;;;;5035636;28;19925;-72
2021/03/24 11:43:09;;;;;;;;;;;24.10;27.80;;;;;;5035498;28;19925;-70
2021/03/24 11:45:37;;;;;;;;;;;22.70;29.10;;;;;;5035452;28;19932;-71
2021/03/24 11:48:24;;;;;;;;;;;21.50;30.10;;;;;;5035258;28;19929;-73
2021/03/24 11:51:04;;;;;;;;;;;20.30;32.10;;;;;;5035366;28;19925;-70
2021/03/24 11:53:45;;;;;;;;;;;19.30;33.60;;;;;;5035497;28;19925;-72
2021/03/24 11:56:25;;;;;;;;;;;18.80;34.70;;;;;;5035095;28;19931;-73
2021/03/24 11:58:59;;;;;;;;;;;18.40;35.70;;;;;;5033502;28;19933;-70
2021/03/24 12:01:32;;;;;;;;;;;18.00;36.10;;;;;;5035252;28;19926;-70
2021/03/24 12:04:10;;;;;;;;;;;17.70;36.60;;;;;;5025871;28;20272;-70
2021/03/24 12:06:47;;;;;;;;;;;17.50;37.60;;;;;;5015327;28;19968;-70
2021/03/24 12:09:20;;;;;;;;;;;17.20;38.20;;;;;;5015180;28;20020;-71
2021/03/24 12:11:48;;;;;;;;;;;17.00;38.40;;;;;;5015259;28;19925;-71
2021/03/24 12:14:16;;;;;;;;;;;16.90;38.40;;;;;;5015151;28;20020;-71
2021/03/24 12:16:44;;;;;;;;;;;16.90;38.60;;;;;;5017342;28;19925;-71
2021/03/24 12:19:31;;;;;;;;;;;16.90;38.70;;;;;;5033409;28;20401;-71
2021/03/24 12:21:59;;;;;;;;;;;16.90;39.00;;;;;;5034832;28;19936;-71
2021/03/24 12:24:27;;;;;;;;;;;16.80;39.40;;;;;;5032866;28;19926;-71
2021/03/24 12:27:04;;;;;;;;;;;16.90;39.60;;;;;;5034453;28;19929;-70
2021/03/24 12:29:31;;;;;;;;;;;16.90;39.50;;;;;;5034647;28;19925;-71
2021/03/24 12:31:59;;;;;;;;;;;16.90;39.40;;;;;;5034339;28;19929;-70
2021/03/24 12:34:26;;;;;;;;;;;17.00;39.40;;;;;;5034550;28;20016;-71
2021/03/24 12:36:54;;;;;;;;;;;16.90;39.40;;;;;;5034542;28;20271;-70
2021/03/24 12:39:28;;;;;;;;;;;16.90;39.50;;;;;;5034547;28;19932;-71
2021/03/24 12:41:55;;;;;;;;;;;16.80;39.50;;;;;;5034368;28;20370;-70
2021/03/24 12:44:24;;;;;;;;;;;16.80;39.70;;;;;;5034378;28;19929;-70
2021/03/24 12:46:54;;;;;;;;;;;16.50;40.10;;;;;;5033543;28;20361;-70
2021/03/24 12:49:22;;;;;;;;;;;16.50;40.60;;;;;;5034101;28;19932;-70
2021/03/24 12:51:50;;;;;;;;;;;16.50;40.70;;;;;;5032685;28;19925;-70
2021/03/24 12:54:18;;;;;;;;;;;16.60;40.70;;;;;;5034415;28;20289;-70
2021/03/24 12:56:52;;;;;;;;;;;16.50;40.90;;;;;;5034124;28;19932;-70
2021/03/24 12:59:29;;;;;;;;;;;16.50;40.80;;;;;;5034082;28;19925;-71
2021/03/24 13:02:01;;;;;;;;;;;16.50;41.00;;;;;;5034014;28;19925;-70
2021/03/24 13:04:43;;;;;;;;;;;16.50;40.90;;;;;;5020608;28;20374;-70
2021/03/24 13:07:24;;;;;;;;;;;16.50;40.70;;;;;;5014223;28;19932;-70
2021/03/24 13:09:58;;;;;;;;;;;16.50;40.80;;;;;;5014137;28;19930;-70
2021/03/24 13:12:28;;;;;;;;;;;16.40;42.00;;;;;;5013912;28;19940;-70
2021/03/24 13:15:06;;;;;;;;;;;16.40;41.80;;;;;;5013975;28;19926;-71
2021/03/24 13:17:38;;;;;;;;;;;16.50;41.70;;;;;;5010861;28;19936;-71
2021/03/24 13:20:22;;;;;;;;;;;16.50;41.60;;;;;;5013963;28;19932;-71
2021/03/24 13:22:52;;;;;;;;;;;16.50;41.50;;;;;;5014026;28;20386;-70
2021/03/24 13:25:22;;;;;;;;;;;16.50;41.40;;;;;;5013933;28;19975;-70
2021/03/24 13:28:01;;;;;;;;;;;16.60;41.50;;;;;;5013811;28;20294;-70
2021/03/24 13:30:31;;;;;;;;;;;16.60;41.40;;;;;;5013552;28;19930;-70
2021/03/24 13:33:01;;;;;;;;;;;16.60;41.30;;;;;;5013586;28;19925;-70
2021/03/24 13:35:31;;;;;;;;;;;16.60;41.40;;;;;;5013612;28;19929;-71
2021/03/24 13:37:57;;;;;;;;;;;16.70;41.50;;;;;;5013637;28;19926;-70
2021/03/24 13:40:26;;;;;;;;;;;16.70;41.50;;;;;;5013732;28;20301;-70
2021/03/24 13:42:54;;;;;;;;;;;16.70;41.60;;;;;;5011895;28;19925;-70
2021/03/24 13:45:24;;;;;;;;;;;16.70;41.50;;;;;;5013752;28;19925;-70
2021/03/24 13:47:52;;;;;;;;;;;16.70;41.80;;;;;;5013347;28;19925;-70
2021/03/24 13:50:21;;;;;;;;;;;16.60;42.10;;;;;;5013492;28;20286;-70
2021/03/24 13:52:50;;;;;;;;;;;16.50;41.90;;;;;;5013631;28;19926;-70
2021/03/24 13:55:46;;;;;;;;;;;16.50;42.10;;;;;;5013275;28;19930;-70
2021/03/24 13:58:22;;;;;;;;;;;16.50;42.30;;;;;;4952986;28;19934;-70
2021/03/24 14:00:49;;;;;;;;;;;16.50;42.60;;;;;;5002810;28;19929;-71
2021/03/24 14:03:22;;;;;;;;;;;16.50;42.60;;;;;;5013122;28;19925;-70
2021/03/24 14:05:52;;;;;;;;;;;16.50;42.30;;;;;;5013304;28;19929;-70
2021/03/24 14:08:26;;;;;;;;;;;16.50;42.30;;;;;;5013012;28;19932;-70
2021/03/24 14:11:02;;;;;;;;;;;16.60;42.20;;;;;;5011420;28;19933;-70
2021/03/24 14:13:49;;;;;;;;;;;16.50;42.20;;;;;;5013242;28;19931;-70
2021/03/24 14:16:19;;;;;;;;;;;16.60;42.10;;;;;;5007982;28;19926;-71
2021/03/24 14:18:53;;;;;;;;;;;16.60;42.10;;;;;;5012994;28;20444;-70
2021/03/24 14:21:35;;;;;;;;;;;16.60;42.20;;;;;;5013150;28;19925;-70
2021/03/24 14:24:05;;;;;;;;;;;16.60;42.20;;;;;;5009765;28;19929;-70
2021/03/24 14:26:33;;;;;;;;;;;16.60;42.10;;;;;;4992889;28;19949;-70
2021/03/24 14:29:29;;;;;;;;;;;16.70;42.20;;;;;;4993040;28;19933;-70
2021/03/24 14:32:02;;;;;;;;;;;16.60;42.60;;;;;;4909542;29;20405;-70
2021/03/24 14:34:34;;;;;;;;;;;16.60;42.40;;;;;;4959682;28;19926;-70
2021/03/24 14:37:01;;;;;;;;;;;16.70;42.40;;;;;;4991606;28;19979;-70
2021/03/24 14:39:35;;;;;;;;;;;16.70;42.20;;;;;;4991621;28;19934;-70
2021/03/24 14:42:14;;;;;;;;;;;16.60;42.40;;;;;;4976267;28;21228;-70
2021/03/24 14:44:47;;;;;;;;;;;16.60;42.60;;;;;;4997009;28;19933;-70
2021/03/24 14:47:23;;;;;;;;;;;16.60;42.70;;;;;;4999549;28;19972;-70
2021/03/24 14:49:56;;;;;;;;;;;16.60;42.90;;;;;;5016578;28;20393;-70